createdAt,value
2019-03-17T00:01:42.128Z,77.00
2019-03-17T00:04:11.524Z,77.00
2019-03-17T00:06:40.834Z,77.00
2019-03-17T00:09:09.906Z,77.00
2019-03-17T00:11:39.250Z,77.00
2019-03-17T00:14:08.276Z,77.00
2019-03-17T00:16:37.068Z,76.90
2019-03-17T00:19:06.470Z,76.90
2019-03-17T00:21:35.637Z,76.90
2019-03-17T00:24:05.942Z,77.60
2019-03-17T00:26:35.024Z,76.90
2019-03-17T00:29:04.129Z,76.90
2019-03-17T00:31:33.487Z,76.90
2019-03-17T00:34:02.339Z,76.80
2019-03-17T00:36:31.502Z,76.80
2019-03-17T00:39:00.628Z,76.90
2019-03-17T00:41:31.597Z,76.90
2019-03-17T00:44:01.330Z,76.90
2019-03-17T00:46:30.407Z,76.90
2019-03-17T00:48:59.793Z,76.80
2019-03-17T00:51:28.695Z,76.80
2019-03-17T00:53:57.730Z,76.80
2019-03-17T00:56:27.220Z,76.80
2019-03-17T00:58:56.823Z,76.80
2019-03-17T01:01:25.603Z,76.90
2019-03-17T01:03:55.296Z,76.70
2019-03-17T01:06:24.138Z,76.70
2019-03-17T01:08:53.393Z,76.80
2019-03-17T01:11:22.339Z,76.80
2019-03-17T01:13:51.341Z,76.60
2019-03-17T01:16:20.941Z,76.30
2019-03-17T01:18:49.768Z,76.30
2019-03-17T01:21:19.091Z,76.20
2019-03-17T01:23:48.402Z,76.40
2019-03-17T01:26:18.182Z,76.40
2019-03-17T01:28:47.479Z,76.50
2019-03-17T01:31:16.927Z,76.60
2019-03-17T01:33:46.238Z,76.60
2019-03-17T01:36:15.264Z,76.70
2019-03-17T01:38:44.543Z,76.50
2019-03-17T01:41:13.870Z,76.70
2019-03-17T01:43:42.907Z,76.70
2019-03-17T01:46:11.958Z,76.60
2019-03-17T01:48:41.563Z,76.40
2019-03-17T01:51:10.606Z,76.60
2019-03-17T01:53:39.996Z,76.60
2019-03-17T01:56:09.098Z,76.60
2019-03-17T01:58:38.130Z,76.60
2019-03-17T02:01:06.932Z,76.60
2019-03-17T02:03:35.955Z,76.70
2019-03-17T02:06:05.118Z,76.70
2019-03-17T02:08:34.135Z,76.60
2019-03-17T02:11:16.508Z,76.40
2019-03-17T02:13:45.316Z,76.50
2019-03-17T02:16:15.051Z,76.70
2019-03-17T02:18:44.688Z,76.60
2019-03-17T02:21:14.303Z,76.60
2019-03-17T02:23:43.895Z,76.70
2019-03-17T02:26:13.264Z,76.70
2019-03-17T02:28:46.135Z,76.50
2019-03-17T02:31:15.144Z,76.70
2019-03-17T02:33:44.257Z,77.50
2019-03-17T02:36:13.377Z,76.80
2019-03-17T02:38:42.733Z,76.70
2019-03-17T02:41:13.250Z,76.60
2019-03-17T02:44:02.011Z,75.30
2019-03-17T02:49:26.938Z,75.70
2019-03-17T02:51:56.793Z,75.80
2019-03-17T02:54:26.225Z,75.80
2019-03-17T02:56:57.987Z,75.70
2019-03-17T02:59:27.799Z,75.40
2019-03-17T03:01:56.921Z,75.60
2019-03-17T03:04:28.501Z,75.60
2019-03-17T03:07:00.634Z,75.40
2019-03-17T03:09:32.516Z,75.50
2019-03-17T03:12:01.651Z,75.90
2019-03-17T03:14:50.721Z,76.70
2019-03-17T03:17:39.351Z,75.80
2019-03-17T03:20:27.729Z,75.80
2019-03-17T03:23:15.713Z,75.70
2019-03-17T03:26:05.440Z,75.60
2019-03-17T03:28:34.778Z,75.60
2019-03-17T03:31:04.159Z,75.50
2019-03-17T03:33:33.157Z,75.50
2019-03-17T03:36:10.665Z,75.50
2019-03-17T03:38:33.585Z,75.40
2019-03-17T03:41:03.632Z,75.40
2019-03-17T03:43:33.095Z,75.40
2019-03-17T03:46:02.394Z,75.30
2019-03-17T03:48:31.432Z,75.40
2019-03-17T03:51:01.005Z,75.30
2019-03-17T03:53:30.142Z,75.30
2019-03-17T03:56:00.118Z,75.40
2019-03-17T03:58:29.834Z,75.40
2019-03-17T04:00:58.770Z,75.50
2019-03-17T04:03:27.652Z,75.40
2019-03-17T04:05:57.026Z,75.40
2019-03-17T04:08:26.145Z,75.50
2019-03-17T04:10:54.980Z,75.50
2019-03-17T04:13:24.459Z,75.40
2019-03-17T04:15:53.599Z,75.40
2019-03-17T04:18:22.888Z,75.50
2019-03-17T04:20:51.807Z,75.50
2019-03-17T04:23:21.802Z,76.20
2019-03-17T04:25:50.947Z,75.30
2019-03-17T04:28:19.720Z,75.40
2019-03-17T04:30:49.274Z,75.20
2019-03-17T04:33:18.079Z,75.30
2019-03-17T04:35:47.577Z,75.90
2019-03-17T04:38:16.660Z,75.20
2019-03-17T04:40:46.216Z,75.10
2019-03-17T04:43:15.057Z,75.10
2019-03-17T04:45:43.844Z,75.10
2019-03-17T04:48:13.240Z,75.10
2019-03-17T04:50:42.013Z,75.10
2019-03-17T04:53:11.414Z,75.00
2019-03-17T04:55:40.956Z,75.00
2019-03-17T04:58:10.072Z,75.00
2019-03-17T05:00:38.886Z,75.00
2019-03-17T05:03:08.224Z,74.90
2019-03-17T05:05:37.090Z,74.90
2019-03-17T05:08:07.622Z,74.90
2019-03-17T05:10:37.012Z,74.80
2019-03-17T05:13:06.170Z,74.80
2019-03-17T05:15:35.486Z,74.80
2019-03-17T05:18:04.984Z,74.80
2019-03-17T05:20:33.814Z,74.70
2019-03-17T05:23:05.721Z,74.70
2019-03-17T05:25:35.330Z,74.80
2019-03-17T05:28:04.456Z,74.70
2019-03-17T05:30:33.842Z,75.50
2019-03-17T05:33:02.684Z,74.80
2019-03-17T05:35:32.247Z,74.80
2019-03-17T05:38:01.317Z,74.80
2019-03-17T05:40:30.460Z,75.00
2019-03-17T05:42:59.808Z,76.10
2019-03-17T05:45:28.826Z,76.20
2019-03-17T05:47:57.884Z,76.30
2019-03-17T05:50:26.943Z,76.30
2019-03-17T05:52:56.300Z,76.40
2019-03-17T05:55:25.579Z,76.50
2019-03-17T05:57:54.626Z,76.50
2019-03-17T06:00:23.975Z,76.70
2019-03-17T06:02:53.105Z,76.60
2019-03-17T06:05:22.696Z,76.80
2019-03-17T06:07:51.847Z,76.80
2019-03-17T06:10:20.681Z,77.00
2019-03-17T06:12:49.724Z,77.10
2019-03-17T06:15:37.729Z,77.10
2019-03-17T06:18:06.802Z,77.30
2019-03-17T06:20:35.897Z,77.30
2019-03-17T06:23:05.353Z,77.40
2019-03-17T06:25:34.805Z,77.60
2019-03-17T06:28:03.884Z,77.60
2019-03-17T06:30:33.454Z,77.70
2019-03-17T06:33:02.275Z,77.70
2019-03-17T06:35:31.336Z,77.70
2019-03-17T06:38:00.212Z,77.70
2019-03-17T06:40:29.657Z,77.70
2019-03-17T06:42:58.531Z,77.70
2019-03-17T06:45:27.606Z,77.70
2019-03-17T06:47:56.726Z,77.70
2019-03-17T06:50:26.329Z,77.70
2019-03-17T06:52:55.746Z,77.70
2019-03-17T06:55:24.825Z,77.80
2019-03-17T06:57:53.633Z,77.80
2019-03-17T07:00:22.722Z,77.80
2019-03-17T07:02:52.067Z,77.60
2019-03-17T07:05:21.753Z,77.40
2019-03-17T07:07:50.611Z,77.20
2019-03-17T07:10:19.691Z,77.30
2019-03-17T07:12:49.163Z,77.60
2019-03-17T07:15:18.108Z,78.00
2019-03-17T07:17:47.431Z,78.20
2019-03-17T07:20:16.853Z,78.10
2019-03-17T07:22:46.210Z,78.10
2019-03-17T07:25:15.626Z,78.30
2019-03-17T07:27:44.688Z,78.50
2019-03-17T07:30:14.103Z,78.50
2019-03-17T07:32:43.389Z,78.60
2019-03-17T07:35:12.959Z,78.50
2019-03-17T07:37:42.001Z,78.40
2019-03-17T07:43:19.676Z,78.30
2019-03-17T07:48:51.833Z,78.20
2019-03-17T07:51:35.840Z,78.40
2019-03-17T07:54:16.841Z,78.50
2019-03-17T07:59:56.399Z,79.20
2019-03-17T08:05:08.032Z,78.60
2019-03-17T08:08:08.242Z,78.40
2019-03-17T08:10:47.325Z,78.30
2019-03-17T08:13:35.703Z,78.10
2019-03-17T08:16:24.360Z,78.30
2019-03-17T08:19:15.335Z,78.40
2019-03-17T08:22:03.872Z,78.40
2019-03-17T08:24:52.727Z,78.20
2019-03-17T08:27:41.348Z,78.20
2019-03-17T08:30:10.875Z,78.20
2019-03-17T08:32:59.026Z,78.20
2019-03-17T08:35:47.193Z,78.20
2019-03-17T08:38:35.475Z,78.30
2019-03-17T08:41:16.817Z,78.30
2019-03-17T08:43:58.046Z,78.40
2019-03-17T08:46:38.896Z,78.50
2019-03-17T08:49:19.600Z,78.60
2019-03-17T08:54:51.771Z,78.40
2019-03-17T08:57:33.006Z,78.20
2019-03-17T09:00:16.961Z,78.00
2019-03-17T09:05:42.471Z,78.00
2019-03-17T09:08:35.033Z,78.00
2019-03-17T09:11:09.439Z,78.00
2019-03-17T09:13:50.350Z,78.80
2019-03-17T09:16:31.353Z,78.20
2019-03-17T09:19:13.761Z,78.30
2019-03-17T09:27:54.740Z,76.80
2019-03-17T09:30:38.787Z,77.80
2019-03-17T09:33:19.423Z,78.00
2019-03-17T09:35:48.334Z,78.10
2019-03-17T09:38:46.772Z,78.00
2019-03-17T09:41:26.665Z,77.80
2019-03-17T09:44:15.061Z,77.70
2019-03-17T09:47:03.350Z,78.00
2019-03-17T09:49:52.015Z,77.90
2019-03-17T09:52:40.705Z,77.90
2019-03-17T09:55:28.974Z,77.90
2019-03-17T09:58:17.091Z,77.90
2019-03-17T10:01:05.141Z,77.80
2019-03-17T10:03:53.143Z,77.80
2019-03-17T10:06:41.446Z,77.70
2019-03-17T10:09:29.810Z,77.70
2019-03-17T10:12:18.046Z,77.80
2019-03-17T10:15:07.043Z,77.80
2019-03-17T10:17:55.335Z,77.90
2019-03-17T10:20:43.416Z,77.70
2019-03-17T10:23:31.718Z,77.70
2019-03-17T10:26:19.780Z,77.60
2019-03-17T10:29:10.337Z,77.60
2019-03-17T10:31:58.322Z,77.40
2019-03-17T10:34:39.675Z,77.40
2019-03-17T10:37:21.175Z,77.30
2019-03-17T10:40:05.787Z,77.30
2019-03-17T10:42:47.947Z,77.00
2019-03-17T10:45:28.824Z,76.70
2019-03-17T10:47:58.450Z,76.60
2019-03-17T10:50:49.858Z,76.50
2019-03-17T10:53:37.110Z,76.70
2019-03-17T10:56:26.814Z,76.70
2019-03-17T10:59:15.401Z,76.70
2019-03-17T11:02:03.397Z,76.50
2019-03-17T11:04:52.011Z,76.30
2019-03-17T11:07:40.292Z,76.20
2019-03-17T11:10:28.617Z,76.20
2019-03-17T11:13:16.871Z,76.20
2019-03-17T11:16:04.894Z,76.00
2019-03-17T11:18:53.196Z,75.10
2019-03-17T11:25:15.818Z,75.10
2019-03-17T11:28:05.021Z,75.00
2019-03-17T11:31:12.276Z,74.50
2019-03-17T11:36:41.360Z,74.70
2019-03-17T11:39:11.063Z,74.30
2019-03-17T11:41:40.588Z,74.20
2019-03-17T11:44:09.634Z,74.10
2019-03-17T11:46:38.715Z,73.90
2019-03-17T11:49:07.812Z,73.90
2019-03-17T11:51:36.838Z,74.00
2019-03-17T11:54:05.667Z,74.30
2019-03-17T11:56:37.426Z,74.40
2019-03-17T11:59:06.509Z,73.70
2019-03-17T12:01:35.644Z,73.40
2019-03-17T12:04:05.059Z,73.50
2019-03-17T12:06:34.318Z,73.60
2019-03-17T12:09:04.447Z,73.40
2019-03-17T12:11:33.958Z,73.30
2019-03-17T12:14:05.410Z,73.10
2019-03-17T12:16:34.484Z,72.90
2019-03-17T12:19:03.854Z,72.70
2019-03-17T12:21:34.534Z,72.40
2019-03-17T12:24:03.392Z,72.10
2019-03-17T12:26:32.621Z,73.10
2019-03-17T12:29:01.684Z,74.50
2019-03-17T12:31:30.830Z,74.90
2019-03-17T12:34:00.196Z,75.20
2019-03-17T12:36:29.224Z,75.80
2019-03-17T12:38:58.305Z,75.80
2019-03-17T12:41:27.061Z,75.90
2019-03-17T12:43:56.231Z,75.70
2019-03-17T12:46:25.822Z,75.80
2019-03-17T12:48:54.885Z,75.60
2019-03-17T12:51:24.255Z,74.20
2019-03-17T12:53:53.300Z,73.90
2019-03-17T12:56:22.101Z,73.70
2019-03-17T12:58:51.426Z,73.40
2019-03-17T13:01:20.486Z,73.30
2019-03-17T13:03:49.628Z,72.90
2019-03-17T13:06:19.014Z,72.30
2019-03-17T13:08:48.453Z,72.20
2019-03-17T13:11:17.244Z,72.20
2019-03-17T13:13:46.666Z,72.20
2019-03-17T13:16:16.282Z,72.10
2019-03-17T13:18:45.379Z,72.00
2019-03-17T13:21:14.451Z,72.10
2019-03-17T13:23:43.632Z,71.90
2019-03-17T13:26:12.746Z,71.90
2019-03-17T13:28:42.336Z,72.70
2019-03-17T13:31:11.376Z,72.90
2019-03-17T13:33:40.307Z,73.90
2019-03-17T13:36:09.210Z,74.10
2019-03-17T13:38:38.536Z,74.10
2019-03-17T13:41:08.181Z,74.10
2019-03-17T13:43:37.269Z,74.00
2019-03-17T13:46:06.438Z,74.20
2019-03-17T13:48:35.796Z,74.10
2019-03-17T13:51:04.562Z,74.00
2019-03-17T13:53:33.892Z,74.00
2019-03-17T13:56:03.267Z,74.00
2019-03-17T13:58:32.644Z,73.90
2019-03-17T14:01:01.998Z,74.10
2019-03-17T14:03:30.858Z,74.00
2019-03-17T14:06:02.287Z,74.20
2019-03-17T14:08:31.494Z,74.40
2019-03-17T14:11:00.618Z,74.50
2019-03-17T14:13:29.668Z,74.40
2019-03-17T14:15:59.000Z,74.50
2019-03-17T14:18:28.110Z,74.60
2019-03-17T14:20:57.531Z,74.30
2019-03-17T14:23:26.885Z,72.80
2019-03-17T14:25:55.681Z,71.80
2019-03-17T14:28:24.704Z,73.00
2019-03-17T14:30:53.795Z,72.90
2019-03-17T14:33:22.559Z,72.80
2019-03-17T14:35:51.956Z,73.40
2019-03-17T14:38:20.989Z,73.30
2019-03-17T14:40:53.908Z,73.30
2019-03-17T14:43:20.554Z,73.30
2019-03-17T14:45:49.825Z,73.30
2019-03-17T14:48:19.195Z,73.40
2019-03-17T14:50:48.762Z,73.60
2019-03-17T14:53:17.853Z,73.70
2019-03-17T14:55:47.209Z,73.80
2019-03-17T14:58:16.346Z,74.00
2019-03-17T15:00:45.395Z,74.10
2019-03-17T15:03:14.410Z,74.30
2019-03-17T15:05:43.591Z,74.40
2019-03-17T15:08:12.929Z,74.60
2019-03-17T15:10:42.311Z,74.60
2019-03-17T15:13:11.637Z,74.70
2019-03-17T15:15:40.433Z,74.80
2019-03-17T15:18:09.231Z,74.50
2019-03-17T15:20:38.630Z,74.10
2019-03-17T15:23:07.822Z,73.60
2019-03-17T15:25:36.900Z,73.50
2019-03-17T15:28:05.757Z,73.40
2019-03-17T15:30:34.660Z,73.50
2019-03-17T15:33:03.782Z,73.60
2019-03-17T15:35:32.707Z,73.80
2019-03-17T15:38:02.042Z,73.80
2019-03-17T15:40:31.087Z,73.90
2019-03-17T15:42:59.821Z,73.90
2019-03-17T15:45:29.052Z,74.00
2019-03-17T15:47:58.405Z,74.20
2019-03-17T15:50:27.276Z,74.60
2019-03-17T15:52:56.038Z,74.80
2019-03-17T15:55:25.315Z,74.70
2019-03-17T15:57:54.416Z,74.40
2019-03-17T16:00:26.412Z,74.20
2019-03-17T16:02:54.402Z,74.00
2019-03-17T16:05:23.444Z,73.80
2019-03-17T16:07:52.680Z,73.70
2019-03-17T16:10:21.855Z,73.70
2019-03-17T16:12:51.012Z,73.70
2019-03-17T16:15:20.069Z,73.80
2019-03-17T16:17:49.190Z,73.70
2019-03-17T16:20:19.103Z,73.80
2019-03-17T16:22:48.461Z,73.70
2019-03-17T16:25:17.716Z,73.80
2019-03-17T16:27:47.137Z,74.00
2019-03-17T16:30:25.714Z,74.00
2019-03-17T16:32:54.874Z,73.90
2019-03-17T16:35:23.964Z,73.70
2019-03-17T16:37:52.964Z,73.60
2019-03-17T16:40:22.473Z,73.70
2019-03-17T16:42:53.806Z,73.70
2019-03-17T16:45:22.664Z,73.90
2019-03-17T16:47:52.060Z,74.00
2019-03-17T16:50:20.980Z,74.10
2019-03-17T16:52:50.171Z,73.90
2019-03-17T16:55:19.960Z,73.80
2019-03-17T16:57:48.861Z,73.60
2019-03-17T17:00:19.292Z,73.40
2019-03-17T17:02:48.712Z,73.50
2019-03-17T17:05:17.618Z,73.40
2019-03-17T17:07:47.074Z,73.40
2019-03-17T17:10:17.118Z,73.50
2019-03-17T17:12:46.404Z,73.60
2019-03-17T17:15:20.442Z,73.80
2019-03-17T17:17:49.710Z,74.30
2019-03-17T17:20:20.590Z,73.50
2019-03-17T17:22:49.894Z,73.50
2019-03-17T17:25:19.363Z,73.60
2019-03-17T17:27:48.550Z,73.40
2019-03-17T17:30:18.634Z,73.30
2019-03-17T17:32:47.597Z,73.10
2019-03-17T17:35:16.545Z,73.10
2019-03-17T17:37:45.652Z,73.00
2019-03-17T17:40:15.728Z,73.00
2019-03-17T17:42:45.036Z,73.00
2019-03-17T17:45:14.695Z,73.10
2019-03-17T17:47:43.714Z,73.20
2019-03-17T17:50:14.489Z,73.30
2019-03-17T17:52:43.859Z,73.30
2019-03-17T17:55:13.150Z,73.40
2019-03-17T17:57:42.264Z,73.30
2019-03-17T18:00:13.708Z,73.30
2019-03-17T18:02:42.795Z,73.30
2019-03-17T18:05:11.778Z,73.20
2019-03-17T18:07:40.586Z,73.10
2019-03-17T18:10:09.732Z,73.00
2019-03-17T18:12:39.075Z,72.90
2019-03-17T18:15:09.846Z,72.80
2019-03-17T18:17:39.065Z,72.80
2019-03-17T18:20:08.976Z,72.80
2019-03-17T18:22:38.274Z,72.80
2019-03-17T18:25:08.212Z,72.70
2019-03-17T18:27:37.322Z,72.70
2019-03-17T18:30:07.107Z,72.50
2019-03-17T18:32:38.250Z,72.50
2019-03-17T18:35:06.851Z,72.40
2019-03-17T18:37:35.951Z,72.50
2019-03-17T18:40:06.222Z,72.40
2019-03-17T18:42:35.462Z,72.40
2019-03-17T18:45:07.506Z,72.40
2019-03-17T18:47:36.910Z,72.40
2019-03-17T18:50:06.048Z,72.30
2019-03-17T18:52:35.442Z,72.30
2019-03-17T18:55:04.458Z,72.40
2019-03-17T18:57:33.282Z,72.30
2019-03-17T19:00:04.358Z,72.50
2019-03-17T19:02:33.326Z,72.70
2019-03-17T19:05:02.486Z,72.80
2019-03-17T19:07:34.983Z,72.80
2019-03-17T19:10:04.271Z,72.80
2019-03-17T19:12:45.028Z,72.70
2019-03-17T19:15:04.995Z,72.30
2019-03-17T19:17:34.444Z,72.00
2019-03-17T19:20:03.734Z,71.90
2019-03-17T19:22:33.001Z,71.90
2019-03-17T19:25:02.491Z,72.00
2019-03-17T19:27:31.313Z,72.00
2019-03-17T19:30:00.693Z,72.10
2019-03-17T19:32:29.793Z,72.20
2019-03-17T19:34:59.144Z,72.30
2019-03-17T19:37:28.566Z,72.50
2019-03-17T19:39:57.715Z,72.50
2019-03-17T19:42:27.065Z,72.30
2019-03-17T19:44:56.185Z,72.40
2019-03-17T19:47:25.214Z,72.40
2019-03-17T19:49:54.674Z,72.40
2019-03-17T19:52:23.474Z,72.50
2019-03-17T19:54:52.618Z,72.40
2019-03-17T19:57:21.718Z,72.40
2019-03-17T19:59:50.852Z,73.20
2019-03-17T20:02:21.666Z,72.50
2019-03-17T20:04:50.962Z,72.60
2019-03-17T20:07:20.297Z,72.60
2019-03-17T20:09:49.701Z,72.60
2019-03-17T20:12:19.359Z,72.60
2019-03-17T20:14:48.648Z,72.70
2019-03-17T20:17:18.216Z,72.60
2019-03-17T20:19:47.321Z,72.60
2019-03-17T20:22:16.415Z,72.60
2019-03-17T20:24:45.563Z,72.70
2019-03-17T20:27:14.361Z,72.70
2019-03-17T20:29:43.151Z,72.70
2019-03-17T20:32:12.633Z,72.70
2019-03-17T20:34:41.758Z,72.80
2019-03-17T20:37:11.109Z,72.90
2019-03-17T20:39:40.217Z,72.90
2019-03-17T20:42:09.267Z,72.90
2019-03-17T20:44:38.338Z,72.90
2019-03-17T20:47:07.191Z,72.80
2019-03-17T20:49:36.600Z,72.70
2019-03-17T20:52:05.632Z,72.70
2019-03-17T20:54:35.218Z,72.70
2019-03-17T20:57:03.988Z,72.60
2019-03-17T20:59:33.035Z,72.60
2019-03-17T21:02:01.846Z,72.70
2019-03-17T21:04:33.286Z,72.60
2019-03-17T21:07:02.326Z,72.50
2019-03-17T21:09:31.482Z,72.50
2019-03-17T21:12:00.310Z,72.60
2019-03-17T21:14:30.191Z,72.60
2019-03-17T21:16:59.014Z,72.60
2019-03-17T21:19:28.273Z,72.60
2019-03-17T21:21:57.325Z,72.50
2019-03-17T21:24:26.293Z,72.50
2019-03-17T21:26:55.374Z,72.60
2019-03-17T21:29:25.242Z,72.60
2019-03-17T21:31:54.141Z,72.60
2019-03-17T21:34:23.020Z,72.50
2019-03-17T21:36:52.271Z,73.10
2019-03-17T21:39:21.103Z,72.50
2019-03-17T21:41:50.154Z,72.50
2019-03-17T21:44:18.920Z,72.60
2019-03-17T21:46:48.083Z,72.50
2019-03-17T21:49:17.095Z,72.50
2019-03-17T21:51:46.386Z,72.50
2019-03-17T21:54:15.459Z,72.40
2019-03-17T21:56:44.516Z,72.50
2019-03-17T21:59:13.849Z,72.50
2019-03-17T22:01:43.454Z,72.50
2019-03-17T22:04:12.760Z,72.50
2019-03-17T22:06:41.930Z,72.50
2019-03-17T22:09:11.621Z,72.50
2019-03-17T22:11:40.691Z,72.50
2019-03-17T22:14:12.198Z,72.40
2019-03-17T22:16:40.266Z,72.40
2019-03-17T22:19:10.082Z,72.60
2019-03-17T22:21:39.771Z,72.60
2019-03-17T22:24:09.182Z,72.60
2019-03-17T22:26:38.320Z,72.70
2019-03-17T22:29:07.397Z,72.60
2019-03-17T22:31:36.399Z,73.30
2019-03-17T22:34:08.132Z,72.60
2019-03-17T22:36:36.520Z,72.50
2019-03-17T22:39:07.254Z,72.60
2019-03-17T22:41:36.282Z,72.60
2019-03-17T22:44:05.465Z,72.60
2019-03-17T22:46:34.790Z,72.60
2019-03-17T22:49:04.080Z,72.60
2019-03-17T22:51:33.391Z,72.60
2019-03-17T22:54:02.140Z,72.60
2019-03-17T22:56:31.451Z,72.60
2019-03-17T22:59:00.714Z,72.60
2019-03-17T23:01:29.573Z,72.60
2019-03-17T23:03:58.619Z,72.70
2019-03-17T23:06:28.016Z,72.70
2019-03-17T23:08:57.022Z,72.70
2019-03-17T23:11:26.161Z,72.80
2019-03-17T23:13:55.272Z,72.80
2019-03-17T23:16:24.639Z,72.70
2019-03-17T23:18:53.675Z,72.80
2019-03-17T23:21:22.709Z,72.90
2019-03-17T23:23:52.037Z,72.80
2019-03-17T23:26:21.369Z,72.80
2019-03-17T23:28:50.269Z,72.90
2019-03-17T23:31:19.046Z,72.90
2019-03-17T23:33:48.150Z,72.80
2019-03-17T23:36:17.759Z,72.90
2019-03-17T23:38:46.898Z,72.90
2019-03-17T23:41:15.751Z,72.90
2019-03-17T23:43:45.142Z,72.90
2019-03-17T23:46:14.382Z,72.90
2019-03-17T23:48:43.424Z,72.90
2019-03-17T23:51:12.458Z,72.80
2019-03-17T23:53:41.500Z,72.80
2019-03-17T23:56:10.914Z,72.90
2019-03-17T23:58:39.794Z,73.00
